createdAt,value
2023-05-21T00:01:01.962Z,63.73
2023-05-21T00:03:32.561Z,63.61
2023-05-21T00:06:03.822Z,63.61
2023-05-21T00:08:35.075Z,63.34
2023-05-21T00:11:05.725Z,63.32
2023-05-21T00:13:36.249Z,63.16
2023-05-21T00:16:07.590Z,63.03
2023-05-21T00:18:39.450Z,62.88
2023-05-21T00:21:10.133Z,63.05
2023-05-21T00:23:42.840Z,62.84
2023-05-21T00:26:13.341Z,62.93
2023-05-21T00:28:45.999Z,62.87
2023-05-21T00:31:17.418Z,62.80
2023-05-21T00:33:47.964Z,62.81
2023-05-21T00:36:18.665Z,62.95
2023-05-21T00:38:49.987Z,62.86
2023-05-21T00:41:22.891Z,63.00
2023-05-21T00:43:54.021Z,62.94
2023-05-21T00:46:25.202Z,63.17
2023-05-21T00:48:58.110Z,63.37
2023-05-21T00:51:30.388Z,63.23
2023-05-21T00:54:01.732Z,63.16
2023-05-21T00:56:32.497Z,63.23
2023-05-21T00:59:05.676Z,63.35
2023-05-21T01:01:37.359Z,63.29
2023-05-21T01:04:08.221Z,63.35
2023-05-21T01:06:38.835Z,63.44
2023-05-21T01:09:10.040Z,63.33
2023-05-21T01:11:45.543Z,63.42
2023-05-21T01:14:18.084Z,63.53
2023-05-21T01:16:50.793Z,63.51
2023-05-21T01:19:23.599Z,63.55
2023-05-21T01:22:01.167Z,63.44
2023-05-21T01:24:31.877Z,63.49
2023-05-21T01:27:06.632Z,63.44
2023-05-21T01:29:37.180Z,63.54
2023-05-21T01:32:13.739Z,63.56
2023-05-21T01:34:53.627Z,63.69
2023-05-21T01:37:28.901Z,63.47
2023-05-21T01:40:04.927Z,63.42
2023-05-21T01:42:37.326Z,63.42
2023-05-21T01:45:10.711Z,63.48
2023-05-21T01:47:43.021Z,63.46
2023-05-21T01:50:15.095Z,63.56
2023-05-21T01:52:53.254Z,63.37
2023-05-21T01:55:25.461Z,63.41
2023-05-21T01:57:56.771Z,63.38
2023-05-21T02:00:29.681Z,63.46
2023-05-21T02:03:00.747Z,63.53
2023-05-21T02:05:32.756Z,63.62
2023-05-21T02:08:03.806Z,63.58
2023-05-21T02:10:34.293Z,63.36
2023-05-21T02:13:05.092Z,63.70
2023-05-21T02:15:35.983Z,63.68
2023-05-21T02:18:07.123Z,63.71
2023-05-21T02:20:37.670Z,63.64
2023-05-21T02:23:08.171Z,63.64
2023-05-21T02:25:38.779Z,63.47
2023-05-21T02:28:09.568Z,63.54
2023-05-21T02:30:40.753Z,63.49
2023-05-21T02:33:14.384Z,63.50
2023-05-21T02:35:45.026Z,63.50
2023-05-21T02:38:19.551Z,63.42
2023-05-21T02:40:51.772Z,63.52
2023-05-21T02:43:22.328Z,63.48
2023-05-21T02:45:52.938Z,63.50
2023-05-21T02:48:23.861Z,63.36
2023-05-21T02:50:54.771Z,63.34
2023-05-21T02:53:25.325Z,63.46
2023-05-21T02:55:56.606Z,63.41
2023-05-21T02:58:27.219Z,63.32
2023-05-21T03:00:58.057Z,63.32
2023-05-21T03:03:28.729Z,63.26
2023-05-21T03:06:00.987Z,63.11
2023-05-21T03:08:32.014Z,63.17
2023-05-21T03:11:02.585Z,63.15
2023-05-21T03:13:33.171Z,63.15
2023-05-21T03:16:03.758Z,63.13
2023-05-21T03:18:35.896Z,63.19
2023-05-21T03:21:07.095Z,63.20
2023-05-21T03:23:37.652Z,63.17
2023-05-21T03:26:08.241Z,63.35
2023-05-21T03:28:38.823Z,63.34
2023-05-21T03:31:09.314Z,63.18
2023-05-21T03:33:54.781Z,63.24
2023-05-21T03:36:27.752Z,63.26
2023-05-21T03:38:59.432Z,63.19
2023-05-21T03:41:30.032Z,63.06
2023-05-21T03:44:06.858Z,63.00
2023-05-21T03:46:47.371Z,63.11
2023-05-21T03:49:25.557Z,62.96
2023-05-21T03:51:57.541Z,63.06
2023-05-21T03:54:28.363Z,63.14
2023-05-21T03:57:01.790Z,63.00
2023-05-21T03:59:32.437Z,63.03
2023-05-21T04:02:03.222Z,63.07
2023-05-21T04:04:34.802Z,63.22
2023-05-21T04:07:05.749Z,63.15
2023-05-21T04:09:36.831Z,63.30
2023-05-21T04:12:08.987Z,63.13
2023-05-21T04:14:40.684Z,63.19
2023-05-21T04:17:12.779Z,63.24
2023-05-21T04:19:43.628Z,63.17
2023-05-21T04:22:14.292Z,63.26
2023-05-21T04:24:46.574Z,62.98
2023-05-21T04:27:23.693Z,63.10
2023-05-21T04:29:55.791Z,63.04
2023-05-21T04:32:28.686Z,63.06
2023-05-21T04:35:01.170Z,62.99
2023-05-21T04:37:35.351Z,63.23
2023-05-21T04:40:07.648Z,63.23
2023-05-21T04:42:39.085Z,63.24
2023-05-21T04:45:12.304Z,63.18
2023-05-21T04:47:46.268Z,63.34
2023-05-21T04:50:17.653Z,63.27
2023-05-21T04:52:48.616Z,63.20
2023-05-21T04:55:19.308Z,63.13
2023-05-21T04:57:50.069Z,63.19
2023-05-21T05:00:20.932Z,63.22
2023-05-21T05:02:51.527Z,63.41
2023-05-21T05:05:22.333Z,63.35
2023-05-21T05:07:52.825Z,63.30
2023-05-21T05:10:24.331Z,63.30
2023-05-21T05:12:55.798Z,63.40
2023-05-21T05:15:26.825Z,63.36
2023-05-21T05:17:57.443Z,63.47
2023-05-21T05:20:28.002Z,63.46
2023-05-21T05:22:59.060Z,63.32
2023-05-21T05:25:29.660Z,63.33
2023-05-21T05:28:00.313Z,63.31
2023-05-21T05:30:30.910Z,63.28
2023-05-21T05:37:21.719Z,63.14
2023-05-21T05:39:51.706Z,63.29
2023-05-21T05:42:22.264Z,63.25
2023-05-21T05:44:53.060Z,63.17
2023-05-21T05:47:23.632Z,62.95
2023-05-21T05:49:54.160Z,62.85
2023-05-21T05:52:24.902Z,62.85
2023-05-21T05:54:56.235Z,62.96
2023-05-21T05:57:26.927Z,62.75
2023-05-21T05:59:58.328Z,62.87
2023-05-21T06:02:28.905Z,62.76
2023-05-21T06:04:59.581Z,62.84
2023-05-21T06:07:30.150Z,62.86
2023-05-21T06:10:01.186Z,62.95
2023-05-21T06:12:31.775Z,62.91
2023-05-21T06:15:02.333Z,62.98
2023-05-21T06:17:33.249Z,63.10
2023-05-21T06:20:04.157Z,63.12
2023-05-21T06:22:35.005Z,63.10
2023-05-21T06:25:08.171Z,63.17
2023-05-21T06:27:39.970Z,63.12
2023-05-21T06:30:14.598Z,63.02
2023-05-21T06:32:45.916Z,63.23
2023-05-21T06:35:16.758Z,63.24
2023-05-21T06:37:48.743Z,63.15
2023-05-21T06:40:20.612Z,63.24
2023-05-21T06:42:52.056Z,62.89
2023-05-21T06:45:41.772Z,62.92
2023-05-21T06:48:24.270Z,62.84
2023-05-21T06:50:54.851Z,62.83
2023-05-21T06:53:25.795Z,62.76
2023-05-21T06:55:56.355Z,62.44
2023-05-21T07:03:05.349Z,62.66
2023-05-21T07:05:36.540Z,62.53
2023-05-21T07:12:29.366Z,61.88
2023-05-21T07:15:00.247Z,61.58
2023-05-21T07:17:31.600Z,61.48
2023-05-21T07:20:02.483Z,61.29
2023-05-21T07:22:33.471Z,61.16
2023-05-21T07:25:04.088Z,61.35
2023-05-21T07:27:34.986Z,61.18
2023-05-21T07:30:06.249Z,61.10
2023-05-21T07:32:36.921Z,60.92
2023-05-21T07:35:08.825Z,60.87
2023-05-21T07:37:39.519Z,60.86
2023-05-21T07:40:12.359Z,61.03
2023-05-21T07:46:59.923Z,60.47
2023-05-21T07:49:31.854Z,60.28
2023-05-21T07:52:02.880Z,60.33
2023-05-21T07:54:33.846Z,60.40
2023-05-21T07:57:04.902Z,60.20
2023-05-21T07:59:53.285Z,60.11
2023-05-21T08:02:24.512Z,59.97
2023-05-21T08:04:56.279Z,59.89
2023-05-21T08:07:28.806Z,59.87
2023-05-21T08:09:59.418Z,60.08
2023-05-21T08:12:30.373Z,60.40
2023-05-21T08:15:01.262Z,60.34
2023-05-21T08:17:32.180Z,60.28
2023-05-21T08:20:03.706Z,60.32
2023-05-21T08:22:33.004Z,60.47
2023-05-21T08:25:03.835Z,60.55
2023-05-21T08:27:34.353Z,60.51
2023-05-21T08:30:05.910Z,60.38
2023-05-21T08:32:36.508Z,60.53
2023-05-21T08:35:08.742Z,60.59
2023-05-21T08:37:55.818Z,60.44
2023-05-21T08:40:47.921Z,60.38
2023-05-21T08:43:18.838Z,60.30
2023-05-21T08:45:56.421Z,60.22
2023-05-21T08:48:31.829Z,60.13
2023-05-21T08:51:02.710Z,59.68
2023-05-21T08:53:36.795Z,59.15
2023-05-21T08:56:09.831Z,59.18
2023-05-21T08:58:48.061Z,59.34
2023-05-21T09:01:21.909Z,59.07
2023-05-21T09:04:12.364Z,58.73
2023-05-21T09:06:51.394Z,58.73
2023-05-21T09:09:34.181Z,58.43
2023-05-21T09:12:06.362Z,58.21
2023-05-21T09:14:38.408Z,57.94
2023-05-21T09:17:20.340Z,58.07
2023-05-21T09:20:11.112Z,57.88
2023-05-21T09:22:45.072Z,57.99
2023-05-21T09:25:22.099Z,58.08
2023-05-21T09:27:52.884Z,58.01
2023-05-21T09:30:35.753Z,57.79
2023-05-21T09:33:07.088Z,57.48
2023-05-21T09:35:38.301Z,57.36
2023-05-21T09:38:12.274Z,57.45
2023-05-21T09:40:47.612Z,57.73
2023-05-21T09:43:18.982Z,57.75
2023-05-21T09:45:58.334Z,57.51
2023-05-21T09:48:40.924Z,57.45
2023-05-21T09:51:16.054Z,57.49
2023-05-21T09:53:52.400Z,57.71
2023-05-21T09:56:24.552Z,57.91
2023-05-21T09:58:56.839Z,57.68
2023-05-21T10:01:28.658Z,58.04
2023-05-21T10:04:01.191Z,58.02
2023-05-21T10:06:33.784Z,57.60
2023-05-21T10:09:08.798Z,57.15
2023-05-21T10:11:40.965Z,57.27
2023-05-21T10:14:15.906Z,56.63
2023-05-21T10:16:48.504Z,56.24
2023-05-21T10:19:20.348Z,56.52
2023-05-21T10:21:53.317Z,56.24
2023-05-21T10:24:25.269Z,55.87
2023-05-21T10:26:56.651Z,56.12
2023-05-21T10:29:28.201Z,55.87
2023-05-21T10:31:57.489Z,55.72
2023-05-21T10:34:29.232Z,55.32
2023-05-21T10:37:02.693Z,54.84
2023-05-21T10:39:34.756Z,54.66
2023-05-21T10:42:18.014Z,55.20
2023-05-21T10:45:04.342Z,54.71
2023-05-21T10:47:48.150Z,54.50
2023-05-21T10:50:45.754Z,53.94
2023-05-21T10:53:26.225Z,53.19
2023-05-21T10:56:14.231Z,52.61
2023-05-21T10:59:15.437Z,52.44
2023-05-21T11:01:46.277Z,52.09
2023-05-21T11:04:17.682Z,51.96
2023-05-21T11:06:50.792Z,52.02
2023-05-21T11:09:21.452Z,52.20
2023-05-21T11:11:54.823Z,52.17
2023-05-21T11:14:36.690Z,51.86
2023-05-21T11:17:14.583Z,50.95
2023-05-21T11:19:47.457Z,50.69
2023-05-21T11:22:28.658Z,50.99
2023-05-21T11:25:04.237Z,50.90
2023-05-21T11:27:37.092Z,50.44
2023-05-21T11:30:09.864Z,50.41
2023-05-21T11:33:21.505Z,50.12
2023-05-21T11:36:01.924Z,49.05
2023-05-21T11:38:34.077Z,49.00
2023-05-21T11:41:06.090Z,48.62
2023-05-21T11:43:41.216Z,48.55
2023-05-21T11:46:13.344Z,48.70
2023-05-21T11:48:45.674Z,47.86
2023-05-21T11:51:16.567Z,47.62
2023-05-21T11:53:48.953Z,47.38
2023-05-21T11:56:20.427Z,47.11
2023-05-21T11:58:49.415Z,46.92
2023-05-21T12:01:26.526Z,46.42
2023-05-21T12:03:57.153Z,45.62
2023-05-21T12:06:31.580Z,45.60
2023-05-21T12:09:02.265Z,45.75
2023-05-21T12:11:32.956Z,45.13
2023-05-21T12:14:03.595Z,45.10
2023-05-21T12:16:35.307Z,45.62
2023-05-21T12:19:06.566Z,44.86
2023-05-21T12:21:37.841Z,45.13
2023-05-21T12:24:09.333Z,44.75
2023-05-21T12:26:38.466Z,44.48
2023-05-21T12:29:09.483Z,44.61
2023-05-21T12:31:50.178Z,44.66
2023-05-21T12:34:40.241Z,44.56
2023-05-21T12:37:12.218Z,44.29
2023-05-21T12:39:47.783Z,44.46
2023-05-21T12:42:24.618Z,44.69
2023-05-21T12:44:55.882Z,44.17
2023-05-21T12:47:27.933Z,44.22
2023-05-21T12:50:00.775Z,44.37
2023-05-21T12:52:31.989Z,44.08
2023-05-21T12:55:02.708Z,44.08
2023-05-21T12:57:39.027Z,43.92
2023-05-21T13:00:12.650Z,44.60
2023-05-21T13:02:45.958Z,44.14
2023-05-21T13:05:20.630Z,44.02
2023-05-21T13:07:51.719Z,43.22
2023-05-21T13:10:22.246Z,43.20
2023-05-21T13:12:52.781Z,43.09
2023-05-21T13:15:23.968Z,42.79
2023-05-21T13:17:56.727Z,42.53
2023-05-21T13:20:28.078Z,42.24
2023-05-21T13:22:58.822Z,42.38
2023-05-21T13:25:29.956Z,42.86
2023-05-21T13:28:05.078Z,42.68
2023-05-21T13:30:35.758Z,42.28
2023-05-21T13:33:07.581Z,42.64
2023-05-21T13:35:38.154Z,42.30
2023-05-21T13:38:08.621Z,42.04
2023-05-21T13:40:39.373Z,41.64
2023-05-21T13:43:09.997Z,41.70
2023-05-21T13:45:40.450Z,41.51
2023-05-21T13:48:11.086Z,41.50
2023-05-21T13:50:41.688Z,41.51
2023-05-21T13:53:12.234Z,41.36
2023-05-21T13:55:42.800Z,41.26
2023-05-21T13:58:13.302Z,40.97
2023-05-21T14:00:44.151Z,40.92
2023-05-21T14:03:14.694Z,40.63
2023-05-21T14:05:45.226Z,40.15
2023-05-21T14:08:16.680Z,40.37
2023-05-21T14:10:45.769Z,40.62
2023-05-21T14:13:19.989Z,40.35
2023-05-21T14:15:50.961Z,40.59
2023-05-21T14:18:21.445Z,40.30
2023-05-21T14:20:51.969Z,40.32
2023-05-21T14:23:22.604Z,39.90
2023-05-21T14:25:53.312Z,39.64
2023-05-21T14:28:23.870Z,39.22
2023-05-21T14:30:54.616Z,39.50
2023-05-21T14:33:25.207Z,39.76
2023-05-21T14:35:55.710Z,39.63
2023-05-21T14:38:26.317Z,39.20
2023-05-21T14:40:57.232Z,39.25
2023-05-21T14:43:27.790Z,38.57
2023-05-21T14:45:58.398Z,38.71
2023-05-21T14:48:29.330Z,38.93
2023-05-21T14:51:00.449Z,39.20
2023-05-21T14:53:31.013Z,38.80
2023-05-21T14:56:01.536Z,38.86
2023-05-21T14:58:32.272Z,38.56
2023-05-21T15:01:04.335Z,38.96
2023-05-21T15:03:35.085Z,38.81
2023-05-21T15:06:05.885Z,38.59
2023-05-21T15:08:36.376Z,38.74
2023-05-21T15:11:07.766Z,38.52
2023-05-21T15:13:36.762Z,38.46
2023-05-21T15:16:08.081Z,38.74
2023-05-21T15:18:37.167Z,38.64
2023-05-21T15:21:07.918Z,38.15
2023-05-21T15:23:38.577Z,37.60
2023-05-21T15:26:09.930Z,37.14
2023-05-21T15:28:40.454Z,37.58
2023-05-21T15:31:12.402Z,37.75
2023-05-21T15:33:42.934Z,37.60
2023-05-21T15:36:13.498Z,37.54
2023-05-21T15:38:44.343Z,37.10
2023-05-21T15:41:14.905Z,37.16
2023-05-21T15:43:47.016Z,37.39
2023-05-21T15:46:17.882Z,37.61
2023-05-21T15:48:48.522Z,37.65
2023-05-21T15:51:19.657Z,37.29
2023-05-21T15:53:50.450Z,37.63
2023-05-21T15:56:21.953Z,37.10
2023-05-21T15:58:52.434Z,36.64
2023-05-21T16:01:23.113Z,36.89
2023-05-21T16:03:53.720Z,36.90
2023-05-21T16:06:24.414Z,36.54
2023-05-21T16:08:54.924Z,36.45
2023-05-21T16:11:25.449Z,36.29
2023-05-21T16:13:56.099Z,36.39
2023-05-21T16:16:26.669Z,36.03
2023-05-21T16:23:22.262Z,35.63
2023-05-21T16:25:53.120Z,35.80
2023-05-21T16:28:24.437Z,35.77
2023-05-21T16:30:54.997Z,35.93
2023-05-21T16:33:25.866Z,36.21
2023-05-21T16:36:21.276Z,36.23
2023-05-21T16:38:51.824Z,36.49
2023-05-21T16:41:22.843Z,36.48
2023-05-21T16:43:54.380Z,36.27
2023-05-21T16:46:24.940Z,36.34
2023-05-21T16:48:55.534Z,36.46
2023-05-21T16:51:26.220Z,36.60
2023-05-21T16:53:56.718Z,36.53
2023-05-21T16:56:27.829Z,36.56
2023-05-21T16:58:58.336Z,36.70
2023-05-21T17:05:42.202Z,37.26
2023-05-21T17:08:12.707Z,37.23
2023-05-21T17:10:43.213Z,37.26
2023-05-21T17:13:21.694Z,37.12
2023-05-21T17:15:54.053Z,37.03
2023-05-21T17:18:24.549Z,37.27
2023-05-21T17:20:56.030Z,37.25
2023-05-21T17:23:25.049Z,37.23
2023-05-21T17:30:12.280Z,37.43
2023-05-21T17:32:46.675Z,38.10
2023-05-21T17:35:17.216Z,40.02
2023-05-21T17:37:48.154Z,42.42
2023-05-21T17:40:21.403Z,44.05
2023-05-21T17:42:52.119Z,45.13
2023-05-21T17:45:23.818Z,45.13
2023-05-21T17:48:00.219Z,45.33
2023-05-21T17:50:31.234Z,46.15
2023-05-21T17:53:01.767Z,45.93
2023-05-21T17:55:32.316Z,46.48
2023-05-21T17:58:02.843Z,46.98
2023-05-21T18:00:34.461Z,47.37
2023-05-21T18:03:05.191Z,47.60
2023-05-21T18:05:39.215Z,47.20
2023-05-21T18:08:10.137Z,47.68
2023-05-21T18:10:40.691Z,48.38
2023-05-21T18:13:11.246Z,48.54
2023-05-21T18:15:41.743Z,48.96
2023-05-21T18:18:19.874Z,48.83
2023-05-21T18:20:52.141Z,49.16
2023-05-21T18:23:22.745Z,49.45
2023-05-21T18:25:53.289Z,49.53
2023-05-21T18:28:23.770Z,49.22
2023-05-21T18:30:55.245Z,49.53
2023-05-21T18:33:24.256Z,49.71
2023-05-21T18:35:54.725Z,50.08
2023-05-21T18:38:25.844Z,50.01
2023-05-21T18:40:56.333Z,49.72
2023-05-21T18:43:26.842Z,49.88
2023-05-21T18:45:57.492Z,50.44
2023-05-21T18:48:28.021Z,50.74
2023-05-21T18:50:58.574Z,50.94
2023-05-21T18:53:29.065Z,51.15
2023-05-21T18:55:59.595Z,50.85
2023-05-21T18:58:30.560Z,50.70
2023-05-21T19:01:01.190Z,50.99
2023-05-21T19:03:32.197Z,50.97
2023-05-21T19:06:03.600Z,51.21
2023-05-21T19:08:34.122Z,51.24
2023-05-21T19:11:04.600Z,51.65
2023-05-21T19:13:36.305Z,51.83
2023-05-21T19:16:11.006Z,51.87
2023-05-21T19:18:43.533Z,52.07
2023-05-21T19:21:14.679Z,51.65
2023-05-21T19:23:53.205Z,51.88
2023-05-21T19:26:24.321Z,52.31
2023-05-21T19:28:55.504Z,52.34
2023-05-21T19:31:26.303Z,52.30
2023-05-21T19:33:56.883Z,52.44
2023-05-21T19:36:32.628Z,52.42
2023-05-21T19:39:09.210Z,52.38
2023-05-21T19:41:40.120Z,52.89
2023-05-21T19:44:10.690Z,52.45
2023-05-21T19:46:41.194Z,52.28
2023-05-21T19:49:14.051Z,52.13
2023-05-21T19:51:45.002Z,52.35
2023-05-21T19:54:15.593Z,52.14
2023-05-21T19:56:46.079Z,52.30
2023-05-21T19:59:16.624Z,52.66
2023-05-21T20:01:47.214Z,52.24
2023-05-21T20:04:17.836Z,52.16
2023-05-21T20:06:48.424Z,52.38
2023-05-21T20:09:19.433Z,52.48
2023-05-21T20:11:49.977Z,52.47
2023-05-21T20:14:20.468Z,52.31
2023-05-21T20:16:51.006Z,52.47
2023-05-21T20:19:22.567Z,52.53
2023-05-21T20:21:53.326Z,52.46
2023-05-21T20:24:24.024Z,52.29
2023-05-21T20:26:55.087Z,52.41
2023-05-21T20:29:25.666Z,52.18
2023-05-21T20:31:56.192Z,52.20
2023-05-21T20:34:27.477Z,52.34
2023-05-21T20:36:58.361Z,52.26
2023-05-21T20:39:29.850Z,52.41
2023-05-21T20:42:00.784Z,52.28
2023-05-21T20:44:31.868Z,52.10
2023-05-21T20:47:04.845Z,51.99
2023-05-21T20:49:35.334Z,51.81
2023-05-21T20:52:07.646Z,52.01
2023-05-21T20:54:38.146Z,51.75
2023-05-21T20:57:10.096Z,51.69
2023-05-21T20:59:40.573Z,51.76
2023-05-21T21:02:13.712Z,51.87
2023-05-21T21:04:44.407Z,51.97
2023-05-21T21:07:15.494Z,51.64
2023-05-21T21:09:46.554Z,51.77
2023-05-21T21:14:50.765Z,51.74
2023-05-21T21:17:21.568Z,51.37
2023-05-21T21:19:52.172Z,51.43
2023-05-21T21:22:22.702Z,51.25
2023-05-21T21:24:53.249Z,51.29
2023-05-21T21:27:23.956Z,51.44
2023-05-21T21:29:54.721Z,50.95
2023-05-21T21:32:27.063Z,51.11
2023-05-21T21:34:57.573Z,50.42
2023-05-21T21:37:29.443Z,50.80
2023-05-21T21:40:00.374Z,51.08
2023-05-21T21:42:30.849Z,50.54
2023-05-21T21:45:01.351Z,50.31
2023-05-21T21:47:32.208Z,50.28
2023-05-21T21:50:03.130Z,50.31
2023-05-21T21:52:33.746Z,50.36
2023-05-21T21:55:04.429Z,50.03
2023-05-21T21:57:35.324Z,49.89
2023-05-21T22:00:11.586Z,49.45
2023-05-21T22:02:42.264Z,49.35
2023-05-21T22:05:16.448Z,48.98
2023-05-21T22:07:47.890Z,48.95
2023-05-21T22:10:17.556Z,48.90
2023-05-21T22:12:49.030Z,48.92
2023-05-21T22:15:24.974Z,49.09
2023-05-21T22:17:55.691Z,49.18
2023-05-21T22:20:29.303Z,48.80
2023-05-21T22:23:00.265Z,48.93
2023-05-21T22:25:30.832Z,48.77
2023-05-21T22:28:01.331Z,48.60
2023-05-21T22:30:31.883Z,48.54
2023-05-21T22:33:02.466Z,48.47
2023-05-21T22:35:33.128Z,48.55
2023-05-21T22:38:03.871Z,48.55
2023-05-21T22:40:34.372Z,48.49
2023-05-21T22:43:05.003Z,48.62
2023-05-21T22:45:36.001Z,48.56
2023-05-21T22:48:08.470Z,48.63
2023-05-21T22:50:39.509Z,48.76
2023-05-21T22:53:10.243Z,48.71
2023-05-21T22:55:40.904Z,48.60
2023-05-21T22:58:11.412Z,48.68
2023-05-21T23:00:41.911Z,48.92
2023-05-21T23:03:12.467Z,49.14
2023-05-21T23:05:43.450Z,48.97
2023-05-21T23:08:14.133Z,49.11
2023-05-21T23:10:44.640Z,48.99
2023-05-21T23:13:15.181Z,48.99
2023-05-21T23:15:45.865Z,49.27
2023-05-21T23:18:16.595Z,49.29
2023-05-21T23:20:47.159Z,49.34
2023-05-21T23:23:17.875Z,49.23
2023-05-21T23:25:48.407Z,49.08
2023-05-21T23:28:18.907Z,49.37
2023-05-21T23:30:49.510Z,49.22
2023-05-21T23:33:20.234Z,49.27
2023-05-21T23:35:50.761Z,49.19
2023-05-21T23:38:21.238Z,49.20
2023-05-21T23:40:52.047Z,49.38
2023-05-21T23:43:22.653Z,49.30
2023-05-21T23:45:53.266Z,49.22
2023-05-21T23:48:23.802Z,49.22
2023-05-21T23:50:54.444Z,49.19
2023-05-21T23:53:24.914Z,49.22
2023-05-21T23:55:55.449Z,49.31
2023-05-21T23:58:26.165Z,49.38
